University Park, New Mexico
Current Conditions -  °F | °C
As of 9:15 PM on Wednesday 26 Nov 2014 (Local Time) from KLRU Reporting Station
Clear Clear  
Wind Chill: 46°   Ceiling: Unl
Heat Index: 48°   Visibility: 10mi
Dew Point: 17°   Wind: 5mph
Humidity: 30%   Direction: 50°NE
Pressure: 30.34"   Gusts: NA
Location:  32.2825°N, 106.737°W
Report Text: KLRU 270415Z AUTO 05004KT 10SM CLR 09/M08 A3034 RMK AO2 T00871082
Loading
Personal Weather Stations






























Interactive Weather Map New forecast layout! Learn more

10-Day Weather Forecast

Advertisements
Track Severe Weather on mobile